Time;durP1;ratioP1;P1;durP2;ratioP2;P2;SDS_P1;SDS_P2;PMS_P1;PMS_P2;Temp;Humidity;BMP_temperature;BMP_pressure;BME280_temperature;BME280_humidity;BME280_pressure;Samples;Min_cycle;Max_cycle;Signal;HPM_P1;HPM_P2
2023/08/07 00:01:33;;;;;;;1.88;1.15;;;;;;;;;;5030224;28;20686;-64
2023/08/07 00:04:00;;;;;;;1.58;1.48;;;;;;;;;;5030302;28;20243;-64
2023/08/07 00:06:26;;;;;;;1.52;1.42;;;;;;;;;;5030075;28;20612;-64
2023/08/07 00:08:53;;;;;;;1.33;1.30;;;;;;;;;;5031187;28;20212;-63
2023/08/07 00:11:19;;;;;;;1.60;1.50;;;;;;;;;;5029787;28;20203;-64
2023/08/07 00:13:47;;;;;;;1.30;1.20;;;;;;;;;;5030313;28;20249;-63
2023/08/07 00:16:13;;;;;;;1.20;1.20;;;;;;;;;;5018895;28;20255;-64
2023/08/07 00:18:40;;;;;;;1.40;1.30;;;;;;;;;;5029928;28;20207;-63
2023/08/07 00:21:06;;;;;;;1.40;1.40;;;;;;;;;;5030123;28;20223;-64
2023/08/07 00:23:33;;;;;;;1.35;1.35;;;;;;;;;;5029678;28;20215;-62
2023/08/07 00:25:59;;;;;;;1.45;1.30;;;;;;;;;;5037491;28;20199;-64
2023/08/07 00:28:26;;;;;;;1.40;1.40;;;;;;;;;;5034157;28;20204;-64
2023/08/07 00:30:54;;;;;;;1.30;1.30;;;;;;;;;;5030364;28;20273;-64
2023/08/07 00:33:20;;;;;;;3.83;1.55;;;;;;;;;;5029588;28;20288;-64
2023/08/07 00:35:46;;;;;;;2.05;1.60;;;;;;;;;;5029988;28;20245;-64
2023/08/07 00:38:13;;;;;;;1.42;1.42;;;;;;;;;;5030393;28;20208;-64
2023/08/07 00:40:40;;;;;;;1.40;1.40;;;;;;;;;;5030438;28;20350;-64
2023/08/07 00:43:07;;;;;;;1.95;1.30;;;;;;;;;;5029378;28;20732;-64
2023/08/07 00:45:35;;;;;;;1.45;1.38;;;;;;;;;;5030243;28;20269;-64
2023/08/07 00:48:03;;;;;;;1.70;1.60;;;;;;;;;;5029206;28;20766;-64
2023/08/07 00:50:30;;;;;;;4.55;1.40;;;;;;;;;;5027060;28;20208;-63
2023/08/07 00:52:56;;;;;;;1.35;1.30;;;;;;;;;;5029570;28;20282;-63
2023/08/07 00:55:23;;;;;;;2.15;1.95;;;;;;;;;;5028618;28;20250;-64
2023/08/07 00:57:50;;;;;;;1.80;1.70;;;;;;;;;;5029498;28;20238;-64
2023/08/07 01:00:17;;;;;;;1.92;1.83;;;;;;;;;;5029577;28;20210;-64
2023/08/07 01:02:43;;;;;;;2.15;2.05;;;;;;;;;;5029419;28;20369;-64
2023/08/07 01:05:11;;;;;;;1.75;1.73;;;;;;;;;;5028965;28;20234;-63
2023/08/07 01:07:38;;;;;;;1.60;1.50;;;;;;;;;;5029348;28;20211;-64
2023/08/07 01:10:06;;;;;;;2.10;2.00;;;;;;;;;;5028878;28;20901;-64
2023/08/07 01:12:35;;;;;;;2.00;1.90;;;;;;;;;;5029837;28;20266;-64
2023/08/07 01:15:04;;;;;;;2.25;2.05;;;;;;;;;;5028760;28;20199;-64
2023/08/07 01:17:33;;;;;;;2.30;2.20;;;;;;;;;;5029088;28;20200;-64
2023/08/07 01:20:00;;;;;;;4.00;2.33;;;;;;;;;;5028803;28;20200;-63
2023/08/07 01:22:28;;;;;;;2.20;2.10;;;;;;;;;;5029778;28;20730;-64
2023/08/07 01:24:54;;;;;;;2.38;2.28;;;;;;;;;;5032875;28;20633;-64
2023/08/07 01:27:28;;;;;;;2.50;2.40;;;;;;;;;;5032079;28;20208;-64
2023/08/07 01:29:56;;;;;;;2.20;2.10;;;;;;;;;;5033084;28;20199;-64
2023/08/07 01:32:27;;;;;;;2.35;2.25;;;;;;;;;;5032768;28;20723;-64
2023/08/07 01:34:55;;;;;;;2.50;2.40;;;;;;;;;;5032401;28;20269;-63
2023/08/07 01:37:22;;;;;;;2.53;2.42;;;;;;;;;;5032280;28;20779;-63
2023/08/07 01:39:50;;;;;;;2.75;2.05;;;;;;;;;;5032532;28;20309;-64
2023/08/07 01:42:17;;;;;;;2.33;2.22;;;;;;;;;;5032783;28;20203;-64
2023/08/07 01:44:43;;;;;;;2.50;2.30;;;;;;;;;;5032295;28;20227;-64
2023/08/07 01:47:10;;;;;;;2.60;2.42;;;;;;;;;;5032425;28;20200;-64
2023/08/07 01:49:38;;;;;;;2.53;2.42;;;;;;;;;;5032118;28;20309;-64
2023/08/07 01:52:05;;;;;;;2.90;2.55;;;;;;;;;;5027777;28;20845;-64
2023/08/07 01:54:31;;;;;;;2.92;2.28;;;;;;;;;;5032205;28;20295;-64
2023/08/07 01:56:59;;;;;;;2.67;2.35;;;;;;;;;;5032710;28;20233;-64
2023/08/07 01:59:26;;;;;;;2.60;2.40;;;;;;;;;;5031928;28;20265;-63
2023/08/07 02:01:52;;;;;;;2.67;2.47;;;;;;;;;;5032246;28;20467;-64
2023/08/07 02:04:19;;;;;;;3.47;3.28;;;;;;;;;;5031462;28;20317;-64
2023/08/07 02:06:45;;;;;;;2.22;2.13;;;;;;;;;;5032277;28;20316;-64
2023/08/07 02:09:11;;;;;;;2.65;2.45;;;;;;;;;;5031862;28;20261;-64
2023/08/07 02:11:38;;;;;;;2.47;2.28;;;;;;;;;;5032061;28;20208;-64
2023/08/07 02:14:06;;;;;;;2.65;2.45;;;;;;;;;;5031534;28;20764;-63
2023/08/07 02:16:32;;;;;;;3.40;2.90;;;;;;;;;;5031928;28;20724;-64
2023/08/07 02:18:58;;;;;;;2.55;2.45;;;;;;;;;;5031802;28;20203;-64
2023/08/07 02:21:25;;;;;;;2.60;2.50;;;;;;;;;;5031895;28;20231;-65
2023/08/07 02:23:51;;;;;;;2.42;2.33;;;;;;;;;;5031776;28;20243;-64
2023/08/07 02:26:18;;;;;;;2.85;2.67;;;;;;;;;;5032158;28;20196;-64
2023/08/07 02:28:44;;;;;;;3.67;2.63;;;;;;;;;;5031670;28;20212;-64
2023/08/07 02:31:12;;;;;;;2.70;2.60;;;;;;;;;;5031784;28;20712;-64
2023/08/07 02:33:38;;;;;;;2.50;2.40;;;;;;;;;;5030855;28;20200;-63
2023/08/07 02:36:05;;;;;;;2.63;2.53;;;;;;;;;;5031279;28;20254;-64
2023/08/07 02:38:31;;;;;;;3.13;2.92;;;;;;;;;;5031131;28;20265;-65
2023/08/07 02:40:58;;;;;;;2.80;2.70;;;;;;;;;;5032033;28;20293;-65
2023/08/07 02:43:25;;;;;;;2.92;2.58;;;;;;;;;;5030768;28;20755;-65
2023/08/07 02:45:52;;;;;;;2.83;2.72;;;;;;;;;;5031694;28;20204;-63
2023/08/07 02:48:20;;;;;;;2.67;2.58;;;;;;;;;;5031165;28;20239;-64
2023/08/07 02:50:46;;;;;;;3.08;2.75;;;;;;;;;;5031580;28;20257;-65
2023/08/07 02:53:12;;;;;;;2.47;2.35;;;;;;;;;;5030623;28;20733;-64
2023/08/07 02:55:39;;;;;;;3.10;2.80;;;;;;;;;;5031361;28;20203;-64
2023/08/07 02:58:05;;;;;;;3.45;3.15;;;;;;;;;;5030902;28;20204;-65
2023/08/07 03:00:32;;;;;;;2.83;2.72;;;;;;;;;;5031008;28;20204;-63
2023/08/07 03:02:58;;;;;;;3.20;3.08;;;;;;;;;;5031048;28;20685;-64
2023/08/07 03:05:26;;;;;;;3.45;2.85;;;;;;;;;;5031542;28;20689;-64
2023/08/07 03:07:53;;;;;;;3.60;3.30;;;;;;;;;;5031483;28;20219;-65
2023/08/07 03:10:19;;;;;;;2.47;2.38;;;;;;;;;;5031743;28;20207;-64
2023/08/07 03:12:45;;;;;;;3.65;3.45;;;;;;;;;;5031259;28;20204;-64
2023/08/07 03:15:12;;;;;;;3.10;2.90;;;;;;;;;;5031691;28;20227;-63
2023/08/07 03:17:38;;;;;;;2.85;2.75;;;;;;;;;;5031224;28;20208;-64
2023/08/07 03:20:05;;;;;;;4.65;2.92;;;;;;;;;;5031076;28;20265;-64
2023/08/07 03:22:34;;;;;;;3.67;3.20;;;;;;;;;;5030759;28;20207;-65
2023/08/07 03:25:00;;;;;;;2.97;2.78;;;;;;;;;;5031109;28;20203;-64
2023/08/07 03:27:26;;;;;;;3.08;2.60;;;;;;;;;;5030693;28;20223;-64
2023/08/07 03:29:53;;;;;;;2.95;2.85;;;;;;;;;;5031205;28;20242;-65
2023/08/07 03:32:19;;;;;;;3.03;2.70;;;;;;;;;;5030461;28;20227;-64
2023/08/07 03:34:46;;;;;;;2.22;2.13;;;;;;;;;;5031102;28;20257;-64
2023/08/07 03:37:12;;;;;;;2.55;2.45;;;;;;;;;;5030536;28;20285;-63
2023/08/07 03:39:40;;;;;;;3.47;2.75;;;;;;;;;;5030873;28;20686;-64
2023/08/07 03:42:07;;;;;;;3.33;3.03;;;;;;;;;;5030292;28;20199;-63
2023/08/07 03:44:34;;;;;;;2.50;2.40;;;;;;;;;;5028416;28;20232;-64
2023/08/07 03:47:00;;;;;;;3.50;2.60;;;;;;;;;;5030429;28;20643;-65
2023/08/07 03:49:27;;;;;;;2.85;2.72;;;;;;;;;;5030198;28;20633;-64
2023/08/07 03:51:53;;;;;;;2.67;2.58;;;;;;;;;;5030659;28;20236;-65
2023/08/07 03:54:20;;;;;;;2.67;2.58;;;;;;;;;;5030523;28;20231;-64
2023/08/07 03:56:49;;;;;;;3.10;3.00;;;;;;;;;;5028367;28;20231;-64
2023/08/07 03:59:16;;;;;;;3.28;3.05;;;;;;;;;;5025727;28;20218;-64
2023/08/07 04:01:42;;;;;;;3.35;2.80;;;;;;;;;;5030293;28;20232;-64
2023/08/07 04:04:09;;;;;;;2.80;2.60;;;;;;;;;;5029919;28;20232;-61
2023/08/07 04:06:35;;;;;;;2.65;2.38;;;;;;;;;;5030189;28;20665;-65
2023/08/07 04:09:03;;;;;;;2.33;2.20;;;;;;;;;;5029484;28;20199;-64
2023/08/07 04:11:29;;;;;;;2.72;2.63;;;;;;;;;;5018158;28;20199;-64
2023/08/07 04:13:57;;;;;;;3.83;2.80;;;;;;;;;;5030043;28;20200;-65
2023/08/07 04:16:25;;;;;;;2.38;2.20;;;;;;;;;;5030576;28;20242;-65
2023/08/07 04:18:52;;;;;;;3.13;2.92;;;;;;;;;;5029931;28;20257;-65
2023/08/07 04:21:18;;;;;;;4.85;4.63;;;;;;;;;;5029948;28;20228;-64
2023/08/07 04:23:45;;;;;;;5.20;4.53;;;;;;;;;;5028767;28;20258;-63
2023/08/07 04:26:11;;;;;;;3.92;3.63;;;;;;;;;;5027741;28;20202;-64
2023/08/07 04:28:37;;;;;;;2.92;2.83;;;;;;;;;;5030089;28;20308;-63
2023/08/07 04:31:05;;;;;;;2.85;2.67;;;;;;;;;;5030444;28;20203;-65
2023/08/07 04:33:32;;;;;;;2.45;2.33;;;;;;;;;;5029508;28;20261;-64
2023/08/07 04:35:58;;;;;;;2.53;2.40;;;;;;;;;;5030209;28;20204;-63
2023/08/07 04:38:25;;;;;;;1.88;1.77;;;;;;;;;;5029676;28;20219;-64
2023/08/07 04:40:52;;;;;;;1.80;1.70;;;;;;;;;;5030315;28;20320;-65
2023/08/07 04:43:19;;;;;;;3.33;2.00;;;;;;;;;;5030042;28;20207;-65
2023/08/07 04:45:46;;;;;;;3.00;2.03;;;;;;;;;;5029792;28;20211;-64
2023/08/07 04:48:14;;;;;;;2.03;1.92;;;;;;;;;;5029874;28;20196;-65
2023/08/07 04:50:40;;;;;;;2.55;2.35;;;;;;;;;;5029755;28;20204;-64
2023/08/07 04:53:07;;;;;;;5.97;5.60;;;;;;;;;;5029597;28;20233;-65
2023/08/07 04:55:33;;;;;;;13.43;11.55;;;;;;;;;;5030040;28;20204;-65
2023/08/07 04:58:00;;;;;;;4.30;4.00;;;;;;;;;;5031014;28;20216;-64
2023/08/07 05:00:26;;;;;;;2.10;2.00;;;;;;;;;;5033863;28;20262;-64
2023/08/07 05:02:53;;;;;;;3.28;2.40;;;;;;;;;;5033420;28;20247;-64
2023/08/07 05:05:23;;;;;;;2.10;1.77;;;;;;;24.70;nan;94794.91;5033290;28;20235;-65
2023/08/07 05:07:49;;;;;;;2.70;2.50;;;;;;;;;;5033146;28;20286;-64
2023/08/07 05:10:16;;;;;;;2.78;2.40;;;;;;;;;;5033451;28;20633;-65
2023/08/07 05:12:42;;;;;;;1.85;1.75;;;;;;;;;;5032901;28;20196;-65
2023/08/07 05:15:09;;;;;;;2.40;2.22;;;;;;;;;;5033530;28;20338;-64
2023/08/07 05:17:36;;;;;;;2.25;2.10;;;;;;;;;;5033108;28;20276;-64
2023/08/07 05:20:02;;;;;;;4.20;2.00;;;;;;;;;;5033681;28;20277;-63
2023/08/07 05:22:30;;;;;;;2.22;2.13;;;;;;;;;;5032596;28;20701;-64
2023/08/07 05:24:56;;;;;;;1.90;1.80;;;;;;;;;;5033487;28;20207;-65
2023/08/07 05:27:23;;;;;;;4.10;2.28;;;;;;;;;;5032958;28;20199;-64
2023/08/07 05:29:49;;;;;;;2.03;1.92;;;;;;;;;;5033130;28;20269;-63
2023/08/07 05:32:16;;;;;;;1.85;1.75;;;;;;;;;;5032333;28;20204;-64
2023/08/07 05:34:42;;;;;;;2.28;2.17;;;;;;;;;;5033431;28;20262;-64
2023/08/07 05:37:09;;;;;;;2.10;2.00;;;;;;;;;;5032472;28;20273;-64
2023/08/07 05:39:37;;;;;;;3.00;2.08;;;;;;;;;;5020446;28;20263;-63
2023/08/07 05:42:04;;;;;;;2.30;2.20;;;;;;;;;;5032393;28;20208;-65
2023/08/07 05:44:31;;;;;;;3.45;2.33;;;;;;;;;;5032867;28;20636;-66
2023/08/07 05:46:57;;;;;;;2.17;1.90;;;;;;;;;;5036011;28;20196;-63
2023/08/07 05:49:24;;;;;;;2.17;2.08;;;;;;;;;;5034896;28;20318;-64
2023/08/07 05:51:50;;;;;;;1.90;1.80;;;;;;;;;;5032487;28;20309;-65
2023/08/07 05:54:17;;;;;;;2.28;2.08;;;;;;;;;;5032489;28;20223;-65
2023/08/07 05:56:45;;;;;;;1.65;1.65;;;;;;;;;;5032585;28;20210;-65
2023/08/07 05:59:11;;;;;;;3.13;2.17;;;;;;;;;;5032737;28;20594;-64
2023/08/07 06:01:38;;;;;;;2.20;2.03;;;;;;;;;;5030325;28;20210;-65
2023/08/07 06:04:04;;;;;;;3.17;1.90;;;;;;;;;;5032502;28;20290;-65
2023/08/07 06:06:34;;;;;;;3.53;3.22;;;;;;;;;;5031780;28;20199;-65
2023/08/07 06:09:00;;;;;;;3.65;2.35;;;;;;;;;;5031332;28;20206;-64
2023/08/07 06:11:27;;;;;;;2.90;2.08;;;;;;;;;;5032527;28;20200;-66
2023/08/07 06:13:55;;;;;;;4.18;3.72;;;;;;;;;;5030127;28;20203;-65
2023/08/07 06:16:21;;;;;;;4.20;3.88;;;;;;;;;;5022482;28;20223;-65
2023/08/07 06:18:48;;;;;;;3.90;3.60;;;;;;;;;;5039032;28;20219;-65
2023/08/07 06:21:14;;;;;;;3.67;3.38;;;;;;;;;;5042080;28;20697;-66
2023/08/07 06:23:40;;;;;;;2.45;2.25;;;;;;;;;;5038824;28;20207;-65
2023/08/07 06:26:08;;;;;;;1.23;1.23;;;;;;;;;;5032182;28;20226;-66
2023/08/07 06:28:36;;;;;;;2.08;1.98;;;;;;;;;;5031471;28;20199;-66
2023/08/07 06:31:04;;;;;;;2.08;1.95;;;;;;;;;;5032288;28;20203;-65
2023/08/07 06:33:30;;;;;;;1.40;1.30;;;;;;;;;;5031488;28;20299;-66
2023/08/07 06:35:57;;;;;;;2.08;1.98;;;;;;;;;;5032078;28;20227;-66
2023/08/07 06:38:24;;;;;;;2.22;2.13;;;;;;;;;;5031613;28;20262;-66
2023/08/07 06:40:50;;;;;;;1.95;1.85;;;;;;;;;;5032209;28;20208;-66
2023/08/07 06:43:17;;;;;;;4.10;3.80;;;;;;;;;;5022274;28;20204;-67
2023/08/07 06:45:43;;;;;;;2.78;2.65;;;;;;;;;;5031178;28;20214;-65
2023/08/07 06:48:11;;;;;;;2.28;2.08;;;;;;;;;;5031172;28;20211;-66
2023/08/07 06:50:38;;;;;;;1.98;1.88;;;;;;;49.15;nan;94725.72;5031106;28;20685;-66
2023/08/07 06:53:04;;;;;;;2.53;2.30;;;;;;;;;;5038491;28;20672;-66
2023/08/07 06:55:31;;;;;;;2.60;2.40;;;;;;;;;;5031409;28;20235;-67
2023/08/07 06:57:57;;;;;;;2.70;2.58;;;;;;;;;;5030673;28;20231;-66
2023/08/07 07:00:24;;;;;;;2.00;1.90;;;;;;;;;;5031279;28;20223;-65
2023/08/07 07:02:50;;;;;;;1.95;1.85;;;;;;;;;;5030439;28;20203;-66
2023/08/07 07:05:18;;;;;;;1.95;1.85;;;;;;;;;;5030737;28;20721;-66
2023/08/07 07:07:44;;;;;;;2.35;2.17;;;;;;;;;;5030708;28;20276;-66
2023/08/07 07:10:11;;;;;;;2.40;1.55;;;;;;;49.94;nan;94726.19;5031243;28;20261;-67
2023/08/07 07:12:38;;;;;;;1.83;1.42;;;;;;;;;;5030313;28;21499;-66
2023/08/07 07:15:05;;;;;;;1.90;1.80;;;;;;;49.59;nan;94715.06;5031233;28;20310;-66
2023/08/07 07:17:32;;;;;;;1.90;1.80;;;;;;;49.60;nan;94722.06;5030594;28;20258;-66
2023/08/07 07:19:58;;;;;;;4.00;3.60;;;;;;;50.10;nan;94713.88;5030495;28;20214;-67
2023/08/07 07:22:28;;;;;;;4.82;3.10;;;;;;;50.13;nan;94718.69;5029252;28;20281;-67
2023/08/07 07:24:55;;;;;;;2.80;2.60;;;;;;;49.46;nan;94710.50;5031291;28;20230;-66
2023/08/07 07:27:22;;;;;;;1.80;1.73;;;;;;;;;;5030479;28;20195;-67
2023/08/07 07:29:48;;;;;;;2.67;2.50;;;;;;;;;;5031278;28;20658;-67
2023/08/07 07:32:15;;;;;;;2.10;2.00;;;;;;;49.93;nan;94711.06;5030246;28;20260;-66
2023/08/07 07:34:43;;;;;;;2.70;1.90;;;;;;;50.07;nan;94709.09;5031232;28;20199;-67
2023/08/07 07:37:09;;;;;;;2.15;2.05;;;;;;;49.77;nan;94696.28;5030066;28;20227;-66
2023/08/07 07:39:37;;;;;;;2.05;1.95;;;;;;;;;;5030833;28;20218;-67
2023/08/07 07:42:04;;;;;;;1.90;1.73;;;;;;;;;;5030018;28;20246;-66
2023/08/07 07:44:31;;;;;;;1.48;1.45;;;;;;;;;;5030842;28;20207;-65
2023/08/07 07:46:57;;;;;;;1.48;1.45;;;;;;;49.44;nan;94712.69;5030030;28;20281;-66
2023/08/07 07:49:24;;;;;;;1.20;1.20;;;;;;;49.16;nan;94705.72;5030580;28;20264;-66
2023/08/07 07:51:51;;;;;;;1.70;1.48;;;;;;;49.83;nan;94709.38;5029511;28;20758;-66
2023/08/07 07:54:17;;;;;;;1.65;1.55;;;;;;;50.03;nan;94714.31;5030516;28;20234;-66
2023/08/07 07:56:45;;;;;;;1.50;1.50;;;;;;;49.77;nan;94720.59;5029907;28;20281;-66
2023/08/07 07:59:13;;;;;;;1.58;1.50;;;;;;;49.32;nan;94712.41;5030238;28;20288;-66
2023/08/07 08:01:39;;;;;;;1.85;1.70;;;;;;;;;;5029087;28;20231;-67
2023/08/07 08:04:06;;;;;;;2.00;1.90;;;;;;;50.01;nan;94704.91;5029921;28;20239;-67
2023/08/07 08:06:33;;;;;;;2.15;2.05;;;;;;;50.07;nan;94697.47;5029712;28;20582;-65
2023/08/07 08:09:04;;;;;;;2.13;2.03;;;;;;;;;;5028256;28;20200;-67
2023/08/07 08:11:30;;;;;;;1.67;1.67;;;;;;;;;;5018552;28;20257;-67
2023/08/07 08:13:58;;;;;;;1.92;1.40;;;;;;;51.07;nan;94703.25;5029882;28;20277;-66
2023/08/07 08:16:25;;;;;;;1.55;1.55;;;;;;;51.20;nan;94702.31;5030189;28;20210;-66
2023/08/07 08:18:51;;;;;;;3.40;3.20;;;;;;;;;;5027933;28;20687;-67
2023/08/07 08:21:18;;;;;;;3.58;2.05;;;;;;;;;;5030348;28;20199;-66
2023/08/07 08:23:44;;;;;;;1.83;1.73;;;;;;;50.44;nan;94696.28;5029776;28;20236;-66
2023/08/07 08:26:11;;;;;;;1.33;1.30;;;;;;;;;;5030392;28;20257;-65
2023/08/07 08:28:37;;;;;;;1.75;1.58;;;;;;;;;;5029600;28;20199;-67
2023/08/07 08:31:06;;;;;;;4.72;2.20;;;;;;;50.38;nan;94688.31;5030076;28;20262;-66
2023/08/07 08:33:32;;;;;;;2.22;1.50;;;;;;;;;;5031690;28;20209;-66
2023/08/07 08:35:59;;;;;;;1.70;1.60;;;;;;;;;;5034164;28;20203;-67
2023/08/07 08:38:29;;;;;;;2.13;1.42;;;;;;;;;;5033002;28;20657;-67
2023/08/07 08:40:56;;;;;;;2.83;1.50;;;;;;;49.68;nan;94680.03;5034455;28;20199;-66
2023/08/07 08:43:23;;;;;;;1.70;1.60;;;;;;;49.66;nan;94672.25;5033777;28;20226;-67
2023/08/07 08:45:50;;;;;;;1.50;1.50;;;;;;;49.50;nan;94676.34;5033769;28;20684;-67
2023/08/07 08:48:21;;;;;;;1.80;1.70;;;;;;;;;;5032860;28;20665;-65
2023/08/07 08:50:50;;;;;;;4.15;1.55;;;;;;;;;;5033685;28;20677;-66
2023/08/07 08:53:16;;;;;;;1.25;1.25;;;;;;;;;;5033305;28;20223;-65
2023/08/07 08:55:46;;;;;;;1.15;1.10;;;;;;;;;;5033579;28;20592;-67
2023/08/07 08:58:13;;;;;;;2.20;1.35;;;;;;;;;;5032875;28;20219;-67
2023/08/07 09:00:40;;;;;;;1.70;1.67;;;;;;;;;;5033856;28;20203;-66
2023/08/07 09:03:07;;;;;;;2.05;1.92;;;;;;;;;;5032928;28;20669;-66
2023/08/07 09:05:36;;;;;;;1.48;1.48;;;;;;;;;;5033306;28;20296;-67
2023/08/07 09:08:03;;;;;;;1.55;1.50;;;;;;;;;;5032639;28;20261;-67
2023/08/07 09:10:30;;;;;;;1.80;1.70;;;;;;;;;;5033107;28;20625;-66
2023/08/07 09:12:58;;;;;;;1.60;1.50;;;;;;;;;;5032997;28;20594;-67
2023/08/07 09:15:26;;;;;;;1.40;1.30;;;;;;;46.65;nan;94649.88;5033026;28;20646;-67
2023/08/07 09:17:55;;;;;;;1.30;1.30;;;;;;;;;;5032716;28;20735;-66
2023/08/07 09:20:22;;;;;;;1.13;1.13;;;;;;;;;;5032811;28;20204;-66
2023/08/07 09:22:51;;;;;;;1.40;1.38;;;;;;;;;;5033042;28;20250;-66
2023/08/07 09:25:27;;;;;;;3.90;1.50;;;;;;;;;;5032481;28;20203;-66
2023/08/07 09:27:53;;;;;;;1.45;1.45;;;;;;;;;;5033334;28;20211;-66
2023/08/07 09:30:20;;;;;;;1.20;1.20;;;;;;;;;;5032315;28;20642;-66
2023/08/07 09:32:48;;;;;;;2.30;1.35;;;;;;;;;;5033158;28;20204;-65
2023/08/07 09:35:14;;;;;;;1.40;1.05;;;;;;;;;;5032529;28;20262;-65
2023/08/07 09:37:44;;;;;;;3.58;1.30;;;;;;;;;;5032762;28;20576;-65
2023/08/07 09:40:15;;;;;;;7.25;1.90;;;;;;;;;;5032746;28;20204;-65
2023/08/07 09:42:41;;;;;;;3.17;1.45;;;;;;;;;;5032513;28;20634;-65
2023/08/07 09:45:20;;;;;;;2.17;1.50;;;;;;;;;;5032139;28;20200;-65
2023/08/07 09:47:46;;;;;;;5.63;1.50;;;;;;;;;;5032335;28;20262;-65
2023/08/07 09:50:16;;;;;;;8.35;1.80;;;;;;;;;;5032279;28;20204;-64
2023/08/07 09:52:42;;;;;;;3.13;1.52;;;;;;;;;;5031934;28;20811;-65
2023/08/07 09:55:09;;;;;;;2.08;1.15;;;;;;;;;;5032561;28;20223;-66
2023/08/07 09:57:37;;;;;;;2.03;1.48;;;;;;;;;;5032381;28;20277;-65
2023/08/07 10:00:11;;;;;;;4.75;3.22;;;;;;;;;;5031827;28;20251;-65
2023/08/07 10:02:37;;;;;;;3.78;1.40;;;;;;;;;;5032316;28;20202;-66
2023/08/07 10:05:05;;;;;;;1.45;1.35;;;;;;;;;;5032124;28;20227;-65
2023/08/07 10:07:32;;;;;;;5.45;1.63;;;;;;;;;;5032179;28;20207;-65
2023/08/07 10:09:59;;;;;;;1.75;1.40;;;;;;;;;;5032609;28;20207;-64
2023/08/07 10:12:26;;;;;;;1.40;1.38;;;;;;;;;;5031933;28;20215;-65
2023/08/07 10:14:54;;;;;;;2.42;1.63;;;;;;;;;;5032561;28;20199;-65
2023/08/07 10:17:21;;;;;;;1.30;1.20;;;;;;;;;;5031327;28;20310;-65
2023/08/07 10:19:47;;;;;;;1.45;1.35;;;;;;;;;;5032147;28;20227;-65
2023/08/07 10:22:15;;;;;;;1.27;1.15;;;;;;;;;;5031822;28;20307;-65
2023/08/07 10:24:43;;;;;;;1.50;1.40;;;;;;;;;;5032411;28;20203;-65
2023/08/07 10:27:10;;;;;;;3.70;1.35;;;;;;;;;;5031414;28;20758;-65
2023/08/07 10:29:37;;;;;;;2.45;1.33;;;;;;;;;;5032141;28;20206;-65
2023/08/07 10:32:05;;;;;;;1.58;1.45;;;;;;;;;;5031351;28;20204;-64
2023/08/07 10:34:34;;;;;;;1.90;1.35;;;;;;;;;;5032179;28;20235;-65
2023/08/07 10:37:00;;;;;;;1.20;0.95;;;;;;;;;;5031481;28;20624;-64
2023/08/07 10:39:27;;;;;;;1.48;1.25;;;;;;;;;;5031930;28;20224;-65
2023/08/07 10:41:54;;;;;;;2.20;1.48;;;;;;;;;;5031682;28;20254;-64
2023/08/07 10:44:21;;;;;;;1.60;1.35;;;;;;;;;;5031728;28;20258;-64
2023/08/07 10:46:48;;;;;;;1.38;1.27;;;;;;;;;;5031400;28;20230;-65
2023/08/07 10:49:30;;;;;;;1.75;1.63;;;;;;;;;;5031681;28;20204;-65
2023/08/07 10:51:57;;;;;;;5.13;1.33;;;;;;;;;;5031378;28;20285;-64
2023/08/07 10:54:24;;;;;;;1.80;1.33;;;;;;;;;;5031556;28;20204;-64
2023/08/07 10:56:53;;;;;;;3.10;1.45;;;;;;;;;;5030727;28;20199;-65
2023/08/07 10:59:19;;;;;;;1.70;1.15;;;;;;;;;;5030873;28;20227;-65
2023/08/07 11:01:51;;;;;;;5.63;1.75;;;;;;;;;;5031246;28;20223;-66
2023/08/07 11:04:19;;;;;;;1.55;1.50;;;;;;;;;;5030905;28;20745;-64
2023/08/07 11:06:48;;;;;;;1.50;1.40;;;;;;;;;;5031443;28;20203;-65
2023/08/07 11:09:14;;;;;;;1.17;1.17;;;;;;;;;;5030747;28;20206;-64
2023/08/07 11:11:41;;;;;;;1.48;1.38;;;;;;;;;;5030942;28;20265;-65
2023/08/07 11:14:08;;;;;;;1.33;1.30;;;;;;;;;;5030760;28;20223;-64
2023/08/07 11:16:34;;;;;;;1.25;1.25;;;;;;;;;;5031280;28;20709;-65
2023/08/07 11:19:01;;;;;;;2.28;1.70;;;;;;;;;;5030810;28;20228;-66
2023/08/07 11:21:29;;;;;;;1.52;1.42;;;;;;;;;;5031021;28;20195;-66
2023/08/07 11:23:56;;;;;;;3.05;1.58;;;;;;;;;;5030770;28;20755;-65
2023/08/07 11:26:24;;;;;;;1.05;1.00;;;;;;;;;;5030913;28;20669;-65
2023/08/07 11:28:51;;;;;;;1.38;1.38;;;;;;;;;;5030570;28;20211;-63
2023/08/07 11:31:18;;;;;;;3.15;1.42;;;;;;;;;;5031443;28;20394;-65
2023/08/07 11:33:44;;;;;;;3.30;1.50;;;;;;;;;;5030403;28;20243;-64
2023/08/07 11:36:12;;;;;;;1.40;1.40;;;;;;;;;;5031347;28;20243;-65
2023/08/07 11:38:42;;;;;;;2.10;2.00;;;;;;;;;;5030185;28;20306;-65
2023/08/07 11:41:10;;;;;;;2.35;1.88;;;;;;;;;;5031030;28;20204;-63
2023/08/07 11:43:36;;;;;;;2.67;2.47;;;;;;;;;;5030121;28;20592;-65
2023/08/07 11:46:03;;;;;;;2.15;1.70;;;;;;;;;;5031179;28;20641;-64
2023/08/07 11:48:30;;;;;;;4.05;2.03;;;;;;;;;;5030023;28;20203;-66
2023/08/07 11:50:58;;;;;;;2.58;2.30;;;;;;;;;;5030613;28;20195;-66
2023/08/07 11:53:25;;;;;;;1.80;1.65;;;;;;;;;;5030102;28;20269;-66
2023/08/07 11:55:58;;;;;;;1.60;1.50;;;;;;;;;;5030963;28;20204;-66
2023/08/07 11:58:25;;;;;;;1.50;1.30;;;;;;;;;;5029949;28;20571;-66
2023/08/07 12:00:51;;;;;;;1.52;1.42;;;;;;;;;;5032261;28;20261;-66
2023/08/07 12:03:26;;;;;;;2.65;1.70;;;;;;;;;;5030127;28;20644;-65
2023/08/07 12:05:52;;;;;;;1.60;1.40;;;;;;;;;;5030286;28;20290;-66
2023/08/07 12:08:19;;;;;;;1.45;1.40;;;;;;;;;;5032945;28;20207;-65
2023/08/07 12:10:49;;;;;;;1.80;1.70;;;;;;;;;;5030989;28;20638;-65
2023/08/07 12:13:17;;;;;;;2.58;1.38;;;;;;;;;;5030591;28;20291;-65
2023/08/07 12:15:44;;;;;;;1.48;1.48;;;;;;;;;;5030032;28;20673;-66
2023/08/07 12:18:11;;;;;;;1.40;1.38;;;;;;;;;;5030421;28;20204;-65
2023/08/07 12:20:38;;;;;;;1.50;1.40;;;;;;;;;;5030139;28;20244;-65
2023/08/07 12:23:04;;;;;;;1.60;1.50;;;;;;;;;;5030748;28;20231;-66
2023/08/07 12:25:31;;;;;;;1.50;1.48;;;;;;;;;;5030283;28;20208;-66
2023/08/07 12:27:57;;;;;;;1.88;1.30;;;;;;;;;;5031209;28;20212;-65
2023/08/07 12:30:25;;;;;;;1.65;1.30;;;;;;;;;;5030004;28;20249;-63
2023/08/07 12:32:52;;;;;;;1.48;1.45;;;;;;;;;;5031107;28;20203;-65
2023/08/07 12:35:19;;;;;;;3.65;1.67;;;;;;;;;;5031077;28;20286;-65
2023/08/07 12:37:45;;;;;;;2.05;1.80;;;;;;;;;;5030642;28;20231;-66
2023/08/07 12:40:12;;;;;;;1.73;1.63;;;;;;;;;;5029667;28;20223;-66
2023/08/07 12:42:38;;;;;;;1.52;1.50;;;;;;;;;;5030250;28;20207;-65
2023/08/07 12:45:05;;;;;;;7.00;1.85;;;;;;;;;;5030079;28;20278;-65
2023/08/07 12:47:33;;;;;;;6.50;1.92;;;;;;;;;;5030295;28;20212;-65
2023/08/07 12:49:59;;;;;;;8.75;2.25;;;;;;;;;;5029780;28;20236;-65
2023/08/07 12:52:26;;;;;;;4.70;2.00;;;;;;;;;;5030384;28;20317;-65
2023/08/07 12:54:52;;;;;;;24.42;3.67;;;;;;;;;;5029472;28;20743;-64
2023/08/07 12:57:19;;;;;;;10.93;2.13;;;;;;;;;;5029746;28;20203;-64
2023/08/07 12:59:45;;;;;;;18.65;3.20;;;;;;;;;;5029506;28;20223;-65
2023/08/07 13:02:12;;;;;;;15.77;2.22;;;;;;;;;;5029475;28;20701;-64
2023/08/07 13:04:39;;;;;;;5.75;2.00;;;;;;;;;;5029346;28;20263;-65
2023/08/07 13:07:06;;;;;;;12.73;2.38;;;;;;;;;;5029989;28;20204;-63
2023/08/07 13:09:33;;;;;;;8.77;1.77;;;;;;;;;;5029307;28;20239;-64
2023/08/07 13:11:59;;;;;;;8.77;2.58;;;;;;;;;;5029831;28;20235;-64
2023/08/07 13:14:26;;;;;;;11.20;2.20;;;;;;;;;;5029699;28;20647;-64
2023/08/07 13:16:52;;;;;;;2.00;1.50;;;;;;;;;;5029990;28;20200;-63
2023/08/07 13:19:19;;;;;;;2.58;1.90;;;;;;;;;;5030950;28;20301;-64
2023/08/07 13:21:47;;;;;;;3.08;1.23;;;;;;;;;;5033459;28;20300;-64
2023/08/07 13:24:13;;;;;;;6.82;2.25;;;;;;;;;;5033425;28;20199;-64
2023/08/07 13:26:44;;;;;;;3.92;2.03;;;;;;;;;;5033185;28;20204;-66
2023/08/07 13:29:11;;;;;;;4.32;1.60;;;;;;;;;;5033024;28;20588;-65
2023/08/07 13:31:37;;;;;;;3.60;1.70;;;;;;;;;;5033285;28;20208;-65
2023/08/07 13:34:07;;;;;;;2.88;1.92;;;;;;;;;;5032887;28;20199;-64
2023/08/07 13:36:34;;;;;;;6.32;1.52;;;;;;;;;;5032992;28;20231;-63
2023/08/07 13:39:02;;;;;;;3.45;1.90;;;;;;;;;;5032663;28;20196;-65
2023/08/07 13:41:28;;;;;;;4.13;2.00;;;;;;;;;;5033076;28;20207;-64
2023/08/07 13:43:54;;;;;;;3.58;2.05;;;;;;;;;;5033107;28;20208;-66
2023/08/07 13:46:21;;;;;;;8.52;2.70;;;;;;;;;;5033017;28;20204;-64
2023/08/07 13:48:48;;;;;;;11.57;3.63;;;;;;;;;;5032762;28;20299;-63
2023/08/07 13:51:14;;;;;;;24.92;3.25;;;;;;;;;;5032304;28;20677;-64
2023/08/07 13:53:41;;;;;;;33.78;3.40;;;;;;;;;;5033269;28;20277;-64
2023/08/07 13:56:12;;;;;;;31.50;3.35;;;;;;;;;;5032532;28;20239;-63
2023/08/07 13:58:38;;;;;;;17.35;2.65;;;;;;;;;;5032438;28;20287;-63
2023/08/07 14:01:05;;;;;;;12.20;2.40;;;;;;;;;;5032356;28;20657;-63
2023/08/07 14:03:31;;;;;;;7.03;2.75;;;;;;;;;;5032620;28;20243;-64
2023/08/07 14:05:58;;;;;;;7.07;2.38;;;;;;;;;;5032172;28;20231;-63
2023/08/07 14:08:24;;;;;;;3.78;1.88;;;;;;;;;;5032269;28;20748;-64
2023/08/07 14:10:51;;;;;;;5.80;1.67;;;;;;;;;;5032148;28;20246;-64
2023/08/07 14:13:18;;;;;;;5.80;2.00;;;;;;;;;;5032489;28;20196;-64
2023/08/07 14:15:45;;;;;;;4.88;2.03;;;;;;;;;;5032385;28;20231;-63
2023/08/07 14:18:14;;;;;;;3.80;1.88;;;;;;;;;;5032481;28;20235;-64
2023/08/07 14:20:41;;;;;;;6.18;1.92;;;;;;;;;;5031988;28;20228;-64
2023/08/07 14:23:07;;;;;;;1.80;1.70;;;;;;;;;;5032488;28;20204;-63
2023/08/07 14:25:34;;;;;;;3.47;1.52;;;;;;;;;;5031774;28;20196;-63